sensor_id;sensor_type;location;lat;lon;timestamp;temperature;humidity
38568;DHT22;24338;48.280;10.970;2023-04-03T00:01:17;2.70;99.90
38568;DHT22;24338;48.280;10.970;2023-04-03T00:03:44;2.70;99.90
38568;DHT22;24338;48.280;10.970;2023-04-03T00:06:11;2.70;99.90
38568;DHT22;24338;48.280;10.970;2023-04-03T00:08:40;2.70;99.90
38568;DHT22;24338;48.280;10.970;2023-04-03T00:11:07;2.70;99.90
38568;DHT22;24338;48.280;10.970;2023-04-03T00:13:35;2.70;99.90
38568;DHT22;24338;48.280;10.970;2023-04-03T00:16:02;2.70;99.90
38568;DHT22;24338;48.280;10.970;2023-04-03T00:18:30;2.70;99.90
38568;DHT22;24338;48.280;10.970;2023-04-03T00:20:57;2.60;99.90
38568;DHT22;24338;48.280;10.970;2023-04-03T00:23:23;2.60;99.90
38568;DHT22;24338;48.280;10.970;2023-04-03T00:25:51;2.60;99.90
38568;DHT22;24338;48.280;10.970;2023-04-03T00:28:18;2.70;99.90
38568;DHT22;24338;48.280;10.970;2023-04-03T00:30:46;2.70;99.90
38568;DHT22;24338;48.280;10.970;2023-04-03T00:33:13;2.60;99.90
38568;DHT22;24338;48.280;10.970;2023-04-03T00:35:40;2.60;99.90
38568;DHT22;24338;48.280;10.970;2023-04-03T00:38:07;2.70;99.90
38568;DHT22;24338;48.280;10.970;2023-04-03T00:40:36;2.70;99.90
38568;DHT22;24338;48.280;10.970;2023-04-03T00:43:20;2.70;99.90
38568;DHT22;24338;48.280;10.970;2023-04-03T00:45:52;2.70;99.90
38568;DHT22;24338;48.280;10.970;2023-04-03T00:48:24;2.60;99.90
38568;DHT22;24338;48.280;10.970;2023-04-03T00:50:52;2.70;99.90
38568;DHT22;24338;48.280;10.970;2023-04-03T00:53:25;2.60;99.90
38568;DHT22;24338;48.280;10.970;2023-04-03T00:55:54;2.60;99.90
38568;DHT22;24338;48.280;10.970;2023-04-03T00:58:28;2.70;99.90
38568;DHT22;24338;48.280;10.970;2023-04-03T01:01:05;2.60;99.90
38568;DHT22;24338;48.280;10.970;2023-04-03T01:03:33;2.70;99.90
38568;DHT22;24338;48.280;10.970;2023-04-03T01:06:00;2.70;99.90
38568;DHT22;24338;48.280;10.970;2023-04-03T01:08:27;2.70;99.90
38568;DHT22;24338;48.280;10.970;2023-04-03T01:10:54;2.70;99.90
38568;DHT22;24338;48.280;10.970;2023-04-03T01:13:31;2.70;99.90
38568;DHT22;24338;48.280;10.970;2023-04-03T01:16:04;2.60;99.90
38568;DHT22;24338;48.280;10.970;2023-04-03T01:18:34;2.60;99.90
38568;DHT22;24338;48.280;10.970;2023-04-03T01:26:44;2.60;99.90
38568;DHT22;24338;48.280;10.970;2023-04-03T01:32:59;2.60;99.90
38568;DHT22;24338;48.280;10.970;2023-04-03T01:35:26;2.50;99.90
38568;DHT22;24338;48.280;10.970;2023-04-03T01:37:53;2.50;99.90
38568;DHT22;24338;48.280;10.970;2023-04-03T01:40:20;2.60;99.90
38568;DHT22;24338;48.280;10.970;2023-04-03T01:42:47;2.50;99.90
38568;DHT22;24338;48.280;10.970;2023-04-03T01:45:14;2.50;99.90
38568;DHT22;24338;48.280;10.970;2023-04-03T01:47:41;2.50;99.90
38568;DHT22;24338;48.280;10.970;2023-04-03T01:50:08;2.50;99.90
38568;DHT22;24338;48.280;10.970;2023-04-03T01:52:35;2.50;99.90
38568;DHT22;24338;48.280;10.970;2023-04-03T01:55:02;2.50;99.90
38568;DHT22;24338;48.280;10.970;2023-04-03T01:57:29;2.50;99.90
38568;DHT22;24338;48.280;10.970;2023-04-03T01:59:56;2.50;99.90
38568;DHT22;24338;48.280;10.970;2023-04-03T02:02:23;2.50;99.90
38568;DHT22;24338;48.280;10.970;2023-04-03T02:04:49;2.50;99.90
38568;DHT22;24338;48.280;10.970;2023-04-03T02:07:16;2.50;99.90
38568;DHT22;24338;48.280;10.970;2023-04-03T02:09:43;2.50;99.90
38568;DHT22;24338;48.280;10.970;2023-04-03T02:12:10;2.50;99.90
38568;DHT22;24338;48.280;10.970;2023-04-03T02:14:37;2.50;99.90
38568;DHT22;24338;48.280;10.970;2023-04-03T02:17:04;2.40;99.90
38568;DHT22;24338;48.280;10.970;2023-04-03T02:19:35;2.40;99.90
38568;DHT22;24338;48.280;10.970;2023-04-03T02:22:03;2.40;99.90
38568;DHT22;24338;48.280;10.970;2023-04-03T02:24:31;2.40;99.90
38568;DHT22;24338;48.280;10.970;2023-04-03T02:26:58;2.40;99.90
38568;DHT22;24338;48.280;10.970;2023-04-03T02:29:25;2.40;99.90
38568;DHT22;24338;48.280;10.970;2023-04-03T02:31:52;2.40;99.90
38568;DHT22;24338;48.280;10.970;2023-04-03T02:34:18;2.40;99.90
38568;DHT22;24338;48.280;10.970;2023-04-03T02:36:45;2.40;99.90
38568;DHT22;24338;48.280;10.970;2023-04-03T02:39:12;2.40;99.90
38568;DHT22;24338;48.280;10.970;2023-04-03T02:41:39;2.40;99.90
38568;DHT22;24338;48.280;10.970;2023-04-03T02:44:08;2.40;99.90
38568;DHT22;24338;48.280;10.970;2023-04-03T02:46:35;2.40;99.90
38568;DHT22;24338;48.280;10.970;2023-04-03T02:49:02;2.40;99.90
38568;DHT22;24338;48.280;10.970;2023-04-03T02:51:29;2.40;99.90
38568;DHT22;24338;48.280;10.970;2023-04-03T02:53:56;2.40;99.90
38568;DHT22;24338;48.280;10.970;2023-04-03T02:56:23;2.40;99.90
38568;DHT22;24338;48.280;10.970;2023-04-03T02:58:50;2.40;99.90
38568;DHT22;24338;48.280;10.970;2023-04-03T03:01:17;2.40;99.90
38568;DHT22;24338;48.280;10.970;2023-04-03T03:03:44;2.40;99.90
38568;DHT22;24338;48.280;10.970;2023-04-03T03:06:14;2.40;99.90
38568;DHT22;24338;48.280;10.970;2023-04-03T03:08:41;2.40;99.90
38568;DHT22;24338;48.280;10.970;2023-04-03T03:11:09;2.30;99.90
38568;DHT22;24338;48.280;10.970;2023-04-03T03:13:36;2.30;99.90
38568;DHT22;24338;48.280;10.970;2023-04-03T03:16:03;2.30;99.90
38568;DHT22;24338;48.280;10.970;2023-04-03T03:18:31;2.30;99.90
38568;DHT22;24338;48.280;10.970;2023-04-03T03:20:59;2.30;99.90
38568;DHT22;24338;48.280;10.970;2023-04-03T03:23:28;2.30;99.90
38568;DHT22;24338;48.280;10.970;2023-04-03T03:26:01;2.30;99.90
38568;DHT22;24338;48.280;10.970;2023-04-03T03:28:28;2.30;99.90
38568;DHT22;24338;48.280;10.970;2023-04-03T03:30:56;2.30;99.90
38568;DHT22;24338;48.280;10.970;2023-04-03T03:33:23;2.30;99.90
38568;DHT22;24338;48.280;10.970;2023-04-03T03:35:50;2.30;99.90
38568;DHT22;24338;48.280;10.970;2023-04-03T03:38:17;2.30;99.90
38568;DHT22;24338;48.280;10.970;2023-04-03T03:40:44;2.30;99.90
38568;DHT22;24338;48.280;10.970;2023-04-03T03:43:11;2.30;99.90
38568;DHT22;24338;48.280;10.970;2023-04-03T03:45:38;2.30;99.90
38568;DHT22;24338;48.280;10.970;2023-04-03T03:48:05;2.30;99.90
38568;DHT22;24338;48.280;10.970;2023-04-03T03:50:32;2.30;99.90
38568;DHT22;24338;48.280;10.970;2023-04-03T03:52:59;2.30;99.90
38568;DHT22;24338;48.280;10.970;2023-04-03T03:55:26;2.30;99.90
38568;DHT22;24338;48.280;10.970;2023-04-03T03:57:53;2.30;99.90
38568;DHT22;24338;48.280;10.970;2023-04-03T04:00:20;2.30;99.90
38568;DHT22;24338;48.280;10.970;2023-04-03T04:02:47;2.20;99.90
38568;DHT22;24338;48.280;10.970;2023-04-03T04:05:14;2.30;99.90
38568;DHT22;24338;48.280;10.970;2023-04-03T04:07:41;2.20;99.90
38568;DHT22;24338;48.280;10.970;2023-04-03T04:10:08;2.30;99.90
38568;DHT22;24338;48.280;10.970;2023-04-03T04:12:35;2.20;99.90
38568;DHT22;24338;48.280;10.970;2023-04-03T04:15:03;2.20;99.90
38568;DHT22;24338;48.280;10.970;2023-04-03T04:17:30;2.20;99.90
38568;DHT22;24338;48.280;10.970;2023-04-03T04:19:57;2.20;99.90
38568;DHT22;24338;48.280;10.970;2023-04-03T04:22:24;2.20;99.90
38568;DHT22;24338;48.280;10.970;2023-04-03T04:24:50;2.20;99.90
38568;DHT22;24338;48.280;10.970;2023-04-03T04:27:17;2.30;99.90
38568;DHT22;24338;48.280;10.970;2023-04-03T04:29:44;2.20;99.90
38568;DHT22;24338;48.280;10.970;2023-04-03T04:32:11;2.20;99.90
38568;DHT22;24338;48.280;10.970;2023-04-03T04:34:38;2.20;99.90
38568;DHT22;24338;48.280;10.970;2023-04-03T04:37:05;2.20;99.90
38568;DHT22;24338;48.280;10.970;2023-04-03T04:39:32;2.20;99.90
38568;DHT22;24338;48.280;10.970;2023-04-03T04:41:59;2.20;99.90
38568;DHT22;24338;48.280;10.970;2023-04-03T04:44:26;2.20;99.90
38568;DHT22;24338;48.280;10.970;2023-04-03T04:46:52;2.20;99.90
38568;DHT22;24338;48.280;10.970;2023-04-03T04:49:19;2.20;99.90
38568;DHT22;24338;48.280;10.970;2023-04-03T04:51:46;2.10;99.90
38568;DHT22;24338;48.280;10.970;2023-04-03T04:54:18;2.10;99.90
38568;DHT22;24338;48.280;10.970;2023-04-03T04:56:45;2.20;99.90
38568;DHT22;24338;48.280;10.970;2023-04-03T04:59:11;2.20;99.90
38568;DHT22;24338;48.280;10.970;2023-04-03T05:01:39;2.10;99.90
38568;DHT22;24338;48.280;10.970;2023-04-03T05:04:06;2.20;99.90
38568;DHT22;24338;48.280;10.970;2023-04-03T05:06:32;2.20;99.90
38568;DHT22;24338;48.280;10.970;2023-04-03T05:09:01;2.20;99.90
38568;DHT22;24338;48.280;10.970;2023-04-03T05:11:28;2.10;99.90
38568;DHT22;24338;48.280;10.970;2023-04-03T05:13:55;2.10;99.90
38568;DHT22;24338;48.280;10.970;2023-04-03T05:16:22;2.10;99.90
38568;DHT22;24338;48.280;10.970;2023-04-03T05:18:48;2.10;99.90
38568;DHT22;24338;48.280;10.970;2023-04-03T05:21:15;2.10;99.90
38568;DHT22;24338;48.280;10.970;2023-04-03T05:23:44;2.10;99.90
38568;DHT22;24338;48.280;10.970;2023-04-03T05:26:11;2.10;99.90
38568;DHT22;24338;48.280;10.970;2023-04-03T05:28:38;2.10;99.90
38568;DHT22;24338;48.280;10.970;2023-04-03T05:31:05;2.10;99.90
38568;DHT22;24338;48.280;10.970;2023-04-03T05:33:32;2.10;99.90
38568;DHT22;24338;48.280;10.970;2023-04-03T05:36:04;2.10;99.90
38568;DHT22;24338;48.280;10.970;2023-04-03T05:38:32;2.10;99.90
38568;DHT22;24338;48.280;10.970;2023-04-03T05:40:59;2.10;99.90
38568;DHT22;24338;48.280;10.970;2023-04-03T05:43:26;2.10;99.90
38568;DHT22;24338;48.280;10.970;2023-04-03T05:45:52;2.20;99.90
38568;DHT22;24338;48.280;10.970;2023-04-03T05:48:20;2.20;99.90
38568;DHT22;24338;48.280;10.970;2023-04-03T05:50:47;2.20;99.90
38568;DHT22;24338;48.280;10.970;2023-04-03T05:53:23;2.20;99.90
38568;DHT22;24338;48.280;10.970;2023-04-03T05:55:51;2.20;99.90
38568;DHT22;24338;48.280;10.970;2023-04-03T05:58:18;2.20;99.90
38568;DHT22;24338;48.280;10.970;2023-04-03T06:00:45;2.20;99.90
38568;DHT22;24338;48.280;10.970;2023-04-03T06:03:12;2.20;99.90
38568;DHT22;24338;48.280;10.970;2023-04-03T06:05:39;2.20;99.90
38568;DHT22;24338;48.280;10.970;2023-04-03T06:08:06;2.30;99.90
38568;DHT22;24338;48.280;10.970;2023-04-03T06:10:33;2.30;99.90
38568;DHT22;24338;48.280;10.970;2023-04-03T06:13:00;2.30;99.90
38568;DHT22;24338;48.280;10.970;2023-04-03T06:15:27;2.30;99.90
38568;DHT22;24338;48.280;10.970;2023-04-03T06:17:54;2.30;99.90
38568;DHT22;24338;48.280;10.970;2023-04-03T06:20:22;2.30;99.90
38568;DHT22;24338;48.280;10.970;2023-04-03T06:22:49;2.40;99.90
38568;DHT22;24338;48.280;10.970;2023-04-03T06:25:16;2.40;99.90
38568;DHT22;24338;48.280;10.970;2023-04-03T06:27:44;2.40;99.90
38568;DHT22;24338;48.280;10.970;2023-04-03T06:30:11;2.40;99.90
38568;DHT22;24338;48.280;10.970;2023-04-03T06:32:38;2.40;99.90
38568;DHT22;24338;48.280;10.970;2023-04-03T06:35:06;2.40;99.90
38568;DHT22;24338;48.280;10.970;2023-04-03T06:37:33;2.40;99.90
38568;DHT22;24338;48.280;10.970;2023-04-03T06:40:01;2.50;99.90
38568;DHT22;24338;48.280;10.970;2023-04-03T06:42:28;2.50;99.90
38568;DHT22;24338;48.280;10.970;2023-04-03T06:44:55;2.50;99.90
38568;DHT22;24338;48.280;10.970;2023-04-03T06:47:22;2.60;99.90
38568;DHT22;24338;48.280;10.970;2023-04-03T06:49:48;2.70;99.90
38568;DHT22;24338;48.280;10.970;2023-04-03T06:52:15;2.70;99.90
38568;DHT22;24338;48.280;10.970;2023-04-03T06:54:42;2.80;99.90
38568;DHT22;24338;48.280;10.970;2023-04-03T06:57:09;2.70;99.90
38568;DHT22;24338;48.280;10.970;2023-04-03T06:59:36;2.70;99.90
38568;DHT22;24338;48.280;10.970;2023-04-03T07:02:03;2.80;99.90
38568;DHT22;24338;48.280;10.970;2023-04-03T07:04:30;2.80;99.90
38568;DHT22;24338;48.280;10.970;2023-04-03T07:06:57;2.80;99.90
38568;DHT22;24338;48.280;10.970;2023-04-03T07:09:24;2.80;99.90
38568;DHT22;24338;48.280;10.970;2023-04-03T07:11:51;2.90;99.90
38568;DHT22;24338;48.280;10.970;2023-04-03T07:14:18;3.10;99.90
38568;DHT22;24338;48.280;10.970;2023-04-03T07:16:45;3.20;99.90
38568;DHT22;24338;48.280;10.970;2023-04-03T07:19:11;3.20;99.90
38568;DHT22;24338;48.280;10.970;2023-04-03T07:21:38;3.20;99.90
38568;DHT22;24338;48.280;10.970;2023-04-03T07:24:05;3.30;99.90
38568;DHT22;24338;48.280;10.970;2023-04-03T07:26:35;3.30;99.90
38568;DHT22;24338;48.280;10.970;2023-04-03T07:29:02;3.40;99.90
38568;DHT22;24338;48.280;10.970;2023-04-03T07:31:29;3.50;99.90
38568;DHT22;24338;48.280;10.970;2023-04-03T07:33:56;3.50;99.90
38568;DHT22;24338;48.280;10.970;2023-04-03T07:36:23;3.60;99.90
38568;DHT22;24338;48.280;10.970;2023-04-03T07:38:50;3.60;99.90
38568;DHT22;24338;48.280;10.970;2023-04-03T07:41:18;3.70;99.90
38568;DHT22;24338;48.280;10.970;2023-04-03T07:43:46;3.70;99.90
38568;DHT22;24338;48.280;10.970;2023-04-03T07:46:13;3.80;99.90
38568;DHT22;24338;48.280;10.970;2023-04-03T07:48:40;3.80;99.90
38568;DHT22;24338;48.280;10.970;2023-04-03T07:51:07;3.80;99.90
38568;DHT22;24338;48.280;10.970;2023-04-03T07:53:34;4.00;99.90
38568;DHT22;24338;48.280;10.970;2023-04-03T07:56:01;4.00;99.90
38568;DHT22;24338;48.280;10.970;2023-04-03T07:58:36;3.90;99.90
38568;DHT22;24338;48.280;10.970;2023-04-03T08:02:08;4.00;99.90
38568;DHT22;24338;48.280;10.970;2023-04-03T08:05:16;3.90;99.90
38568;DHT22;24338;48.280;10.970;2023-04-03T08:08:20;4.10;99.90
38568;DHT22;24338;48.280;10.970;2023-04-03T08:14:37;4.10;99.90
38568;DHT22;24338;48.280;10.970;2023-04-03T08:17:47;4.20;99.90
38568;DHT22;24338;48.280;10.970;2023-04-03T08:20:35;4.10;99.90
38568;DHT22;24338;48.280;10.970;2023-04-03T08:23:57;4.10;99.90
38568;DHT22;24338;48.280;10.970;2023-04-03T08:27:30;4.20;99.90
38568;DHT22;24338;48.280;10.970;2023-04-03T08:30:51;4.30;99.90
38568;DHT22;24338;48.280;10.970;2023-04-03T08:33:50;4.50;99.90
38568;DHT22;24338;48.280;10.970;2023-04-03T08:37:25;4.50;99.90
38568;DHT22;24338;48.280;10.970;2023-04-03T08:44:50;4.40;99.90
38568;DHT22;24338;48.280;10.970;2023-04-03T08:48:06;4.60;99.90
38568;DHT22;24338;48.280;10.970;2023-04-03T08:51:42;4.70;99.90
38568;DHT22;24338;48.280;10.970;2023-04-03T08:58:52;4.90;99.90
38568;DHT22;24338;48.280;10.970;2023-04-03T09:02:25;5.10;99.90
38568;DHT22;24338;48.280;10.970;2023-04-03T09:06:05;5.10;99.90
38568;DHT22;24338;48.280;10.970;2023-04-03T09:09:35;5.00;99.90
38568;DHT22;24338;48.280;10.970;2023-04-03T09:27:33;5.50;99.90
38568;DHT22;24338;48.280;10.970;2023-04-03T10:36:43;5.40;99.90
38568;DHT22;24338;48.280;10.970;2023-04-03T10:42:08;5.60;99.90
38568;DHT22;24338;48.280;10.970;2023-04-03T10:47:31;5.50;99.90
38568;DHT22;24338;48.280;10.970;2023-04-03T10:50:26;5.50;99.90
38568;DHT22;24338;48.280;10.970;2023-04-03T10:56:22;5.30;99.90
38568;DHT22;24338;48.280;10.970;2023-04-03T10:58:33;5.30;99.90
38568;DHT22;24338;48.280;10.970;2023-04-03T11:01:31;5.60;99.90
38568;DHT22;24338;48.280;10.970;2023-04-03T11:04:00;5.70;99.90
38568;DHT22;24338;48.280;10.970;2023-04-03T11:06:39;5.80;99.90
38568;DHT22;24338;48.280;10.970;2023-04-03T11:09:34;5.80;99.90
38568;DHT22;24338;48.280;10.970;2023-04-03T11:12:13;5.80;99.90
38568;DHT22;24338;48.280;10.970;2023-04-03T11:14:41;5.90;99.90
38568;DHT22;24338;48.280;10.970;2023-04-03T11:27:51;5.50;99.90
38568;DHT22;24338;48.280;10.970;2023-04-03T11:33:28;5.40;99.90
38568;DHT22;24338;48.280;10.970;2023-04-03T11:36:27;5.30;99.90
38568;DHT22;24338;48.280;10.970;2023-04-03T11:39:01;5.10;99.90
38568;DHT22;24338;48.280;10.970;2023-04-03T11:41:31;5.00;99.90
38568;DHT22;24338;48.280;10.970;2023-04-03T11:44:04;5.20;99.90
38568;DHT22;24338;48.280;10.970;2023-04-03T11:46:56;5.20;99.90
38568;DHT22;24338;48.280;10.970;2023-04-03T11:52:11;5.30;99.90
38568;DHT22;24338;48.280;10.970;2023-04-03T11:57:44;5.30;99.90
38568;DHT22;24338;48.280;10.970;2023-04-03T12:03:33;4.90;99.90
38568;DHT22;24338;48.280;10.970;2023-04-03T12:19:31;5.00;99.90
38568;DHT22;24338;48.280;10.970;2023-04-03T12:22:19;5.20;99.90
38568;DHT22;24338;48.280;10.970;2023-04-03T12:24:50;5.30;99.90
38568;DHT22;24338;48.280;10.970;2023-04-03T12:35:19;5.50;99.90
38568;DHT22;24338;48.280;10.970;2023-04-03T12:48:31;4.90;99.90
38568;DHT22;24338;48.280;10.970;2023-04-03T12:50:59;5.00;99.90
38568;DHT22;24338;48.280;10.970;2023-04-03T12:53:33;5.00;99.90
38568;DHT22;24338;48.280;10.970;2023-04-03T12:58:51;5.40;99.90
38568;DHT22;24338;48.280;10.970;2023-04-03T16:15:39;6.80;74.90
38568;DHT22;24338;48.280;10.970;2023-04-03T16:18:07;6.90;77.70
38568;DHT22;24338;48.280;10.970;2023-04-03T16:20:35;6.90;77.20
38568;DHT22;24338;48.280;10.970;2023-04-03T16:23:03;6.60;75.80
38568;DHT22;24338;48.280;10.970;2023-04-03T16:25:30;6.60;79.90
38568;DHT22;24338;48.280;10.970;2023-04-03T16:27:57;6.50;78.40
38568;DHT22;24338;48.280;10.970;2023-04-03T16:30:46;6.30;77.10
38568;DHT22;24338;48.280;10.970;2023-04-03T16:34:24;6.10;79.60
38568;DHT22;24338;48.280;10.970;2023-04-03T16:41:39;5.50;78.50
38568;DHT22;24338;48.280;10.970;2023-04-03T16:44:36;5.30;78.30
38568;DHT22;24338;48.280;10.970;2023-04-03T16:47:12;5.30;80.40
38568;DHT22;24338;48.280;10.970;2023-04-03T16:49:40;5.10;82.20
38568;DHT22;24338;48.280;10.970;2023-04-03T16:52:07;5.00;85.00
38568;DHT22;24338;48.280;10.970;2023-04-03T16:54:34;4.90;82.40
38568;DHT22;24338;48.280;10.970;2023-04-03T16:57:01;4.90;80.70
38568;DHT22;24338;48.280;10.970;2023-04-03T16:59:28;4.90;85.40
38568;DHT22;24338;48.280;10.970;2023-04-03T17:01:54;5.00;86.20
38568;DHT22;24338;48.280;10.970;2023-04-03T17:04:21;5.00;86.60
38568;DHT22;24338;48.280;10.970;2023-04-03T17:06:48;5.10;86.10
38568;DHT22;24338;48.280;10.970;2023-04-03T17:09:15;5.00;84.40
38568;DHT22;24338;48.280;10.970;2023-04-03T17:11:42;4.90;84.80
38568;DHT22;24338;48.280;10.970;2023-04-03T17:14:13;4.80;84.90
38568;DHT22;24338;48.280;10.970;2023-04-03T17:16:40;4.70;89.00
38568;DHT22;24338;48.280;10.970;2023-04-03T17:19:07;4.60;88.20
38568;DHT22;24338;48.280;10.970;2023-04-03T17:21:34;4.50;87.80
38568;DHT22;24338;48.280;10.970;2023-04-03T17:24:04;4.40;87.50
38568;DHT22;24338;48.280;10.970;2023-04-03T17:26:34;4.30;89.50
38568;DHT22;24338;48.280;10.970;2023-04-03T17:29:03;4.20;88.90
38568;DHT22;24338;48.280;10.970;2023-04-03T17:31:30;4.10;88.80
38568;DHT22;24338;48.280;10.970;2023-04-03T17:33:57;4.00;90.20
38568;DHT22;24338;48.280;10.970;2023-04-03T17:36:32;3.90;90.10
38568;DHT22;24338;48.280;10.970;2023-04-03T17:38:59;3.80;90.60
38568;DHT22;24338;48.280;10.970;2023-04-03T17:41:26;3.70;90.90
38568;DHT22;24338;48.280;10.970;2023-04-03T17:43:53;3.50;91.50
38568;DHT22;24338;48.280;10.970;2023-04-03T17:46:24;3.50;91.60
38568;DHT22;24338;48.280;10.970;2023-04-03T17:48:52;3.40;91.40
38568;DHT22;24338;48.280;10.970;2023-04-03T17:51:21;3.30;91.20
38568;DHT22;24338;48.280;10.970;2023-04-03T17:53:48;3.20;91.70
38568;DHT22;24338;48.280;10.970;2023-04-03T17:56:18;3.20;91.80
38568;DHT22;24338;48.280;10.970;2023-04-03T17:58:45;3.10;92.70
38568;DHT22;24338;48.280;10.970;2023-04-03T18:01:13;3.00;92.40
38568;DHT22;24338;48.280;10.970;2023-04-03T18:03:41;3.00;93.00
38568;DHT22;24338;48.280;10.970;2023-04-03T18:06:12;2.90;93.60
38568;DHT22;24338;48.280;10.970;2023-04-03T18:08:43;2.70;93.60
38568;DHT22;24338;48.280;10.970;2023-04-03T18:11:11;2.70;94.10
38568;DHT22;24338;48.280;10.970;2023-04-03T18:13:38;2.60;94.10
38568;DHT22;24338;48.280;10.970;2023-04-03T18:16:06;2.50;94.40
38568;DHT22;24338;48.280;10.970;2023-04-03T18:18:34;2.50;94.00
38568;DHT22;24338;48.280;10.970;2023-04-03T18:21:01;2.50;95.10
38568;DHT22;24338;48.280;10.970;2023-04-03T18:23:29;2.40;95.30
38568;DHT22;24338;48.280;10.970;2023-04-03T18:25:58;2.30;95.10
38568;DHT22;24338;48.280;10.970;2023-04-03T18:28:27;2.30;96.00
38568;DHT22;24338;48.280;10.970;2023-04-03T18:30:54;2.30;95.80
38568;DHT22;24338;48.280;10.970;2023-04-03T18:36:35;2.10;95.90
38568;DHT22;24338;48.280;10.970;2023-04-03T18:39:01;2.10;95.70
38568;DHT22;24338;48.280;10.970;2023-04-03T18:41:31;2.10;95.80
38568;DHT22;24338;48.280;10.970;2023-04-03T18:44:01;2.00;96.50
38568;DHT22;24338;48.280;10.970;2023-04-03T18:46:28;2.10;95.80
38568;DHT22;24338;48.280;10.970;2023-04-03T18:48:56;2.00;96.10
38568;DHT22;24338;48.280;10.970;2023-04-03T18:51:24;2.00;96.20
38568;DHT22;24338;48.280;10.970;2023-04-03T18:53:51;2.00;95.40
38568;DHT22;24338;48.280;10.970;2023-04-03T18:56:21;2.00;95.10
38568;DHT22;24338;48.280;10.970;2023-04-03T18:59:15;2.00;95.50
38568;DHT22;24338;48.280;10.970;2023-04-03T19:01:43;1.90;95.90
38568;DHT22;24338;48.280;10.970;2023-04-03T19:04:11;1.90;96.40
38568;DHT22;24338;48.280;10.970;2023-04-03T19:06:40;1.80;96.80
38568;DHT22;24338;48.280;10.970;2023-04-03T19:09:07;1.80;98.20
38568;DHT22;24338;48.280;10.970;2023-04-03T19:11:34;1.60;98.30
38568;DHT22;24338;48.280;10.970;2023-04-03T19:14:02;1.60;99.00
38568;DHT22;24338;48.280;10.970;2023-04-03T19:16:43;1.60;99.50
38568;DHT22;24338;48.280;10.970;2023-04-03T19:19:10;1.60;99.70
38568;DHT22;24338;48.280;10.970;2023-04-03T19:21:37;1.50;99.90
38568;DHT22;24338;48.280;10.970;2023-04-03T19:24:11;1.50;99.90
38568;DHT22;24338;48.280;10.970;2023-04-03T19:26:40;1.50;99.90
38568;DHT22;24338;48.280;10.970;2023-04-03T19:29:07;1.40;99.90
38568;DHT22;24338;48.280;10.970;2023-04-03T19:31:35;1.50;99.90
38568;DHT22;24338;48.280;10.970;2023-04-03T19:34:03;1.50;99.90
38568;DHT22;24338;48.280;10.970;2023-04-03T19:36:34;1.50;99.90
38568;DHT22;24338;48.280;10.970;2023-04-03T19:39:02;1.40;99.90
38568;DHT22;24338;48.280;10.970;2023-04-03T19:41:29;1.40;99.90
38568;DHT22;24338;48.280;10.970;2023-04-03T19:43:57;1.40;99.90
38568;DHT22;24338;48.280;10.970;2023-04-03T19:46:26;1.40;99.90
38568;DHT22;24338;48.280;10.970;2023-04-03T19:48:53;1.40;99.90
38568;DHT22;24338;48.280;10.970;2023-04-03T19:51:20;1.40;99.90
38568;DHT22;24338;48.280;10.970;2023-04-03T19:53:47;1.40;99.90
38568;DHT22;24338;48.280;10.970;2023-04-03T19:56:14;1.40;99.90
38568;DHT22;24338;48.280;10.970;2023-04-03T19:58:46;1.30;99.90
38568;DHT22;24338;48.280;10.970;2023-04-03T20:01:23;1.30;99.90
38568;DHT22;24338;48.280;10.970;2023-04-03T20:03:52;1.30;99.90
38568;DHT22;24338;48.280;10.970;2023-04-03T20:06:19;1.30;99.90
38568;DHT22;24338;48.280;10.970;2023-04-03T20:08:47;1.20;99.90
38568;DHT22;24338;48.280;10.970;2023-04-03T20:11:38;1.20;99.90
38568;DHT22;24338;48.280;10.970;2023-04-03T20:14:21;1.20;99.90
38568;DHT22;24338;48.280;10.970;2023-04-03T20:16:53;1.20;99.90
38568;DHT22;24338;48.280;10.970;2023-04-03T20:19:20;1.20;99.90
38568;DHT22;24338;48.280;10.970;2023-04-03T20:21:47;1.10;99.90
38568;DHT22;24338;48.280;10.970;2023-04-03T20:24:14;1.10;99.90
38568;DHT22;24338;48.280;10.970;2023-04-03T20:26:43;1.00;99.90
38568;DHT22;24338;48.280;10.970;2023-04-03T20:29:13;1.00;99.90
38568;DHT22;24338;48.280;10.970;2023-04-03T20:31:42;0.90;99.90
38568;DHT22;24338;48.280;10.970;2023-04-03T20:38:21;0.90;99.90
38568;DHT22;24338;48.280;10.970;2023-04-03T20:50:19;0.70;99.90
38568;DHT22;24338;48.280;10.970;2023-04-03T20:57:18;0.50;99.90
38568;DHT22;24338;48.280;10.970;2023-04-03T20:59:56;0.50;99.90
38568;DHT22;24338;48.280;10.970;2023-04-03T21:02:38;0.40;99.90
38568;DHT22;24338;48.280;10.970;2023-04-03T21:21:28;0.10;99.90
38568;DHT22;24338;48.280;10.970;2023-04-03T21:23:59;0.10;99.90
38568;DHT22;24338;48.280;10.970;2023-04-03T21:26:29;0.10;99.90
38568;DHT22;24338;48.280;10.970;2023-04-03T21:28:56;0.10;99.90
38568;DHT22;24338;48.280;10.970;2023-04-03T21:31:23;0.10;99.90
38568;DHT22;24338;48.280;10.970;2023-04-03T21:33:52;0.10;99.90
38568;DHT22;24338;48.280;10.970;2023-04-03T21:36:26;0.10;99.90
38568;DHT22;24338;48.280;10.970;2023-04-03T21:51:17;-0.20;99.90
38568;DHT22;24338;48.280;10.970;2023-04-03T21:53:44;-0.30;99.90
38568;DHT22;24338;48.280;10.970;2023-04-03T21:56:11;-0.30;99.90
38568;DHT22;24338;48.280;10.970;2023-04-03T21:58:41;-0.30;99.90
38568;DHT22;24338;48.280;10.970;2023-04-03T22:09:26;-0.40;99.90
38568;DHT22;24338;48.280;10.970;2023-04-03T22:32:31;-0.60;99.90
38568;DHT22;24338;48.280;10.970;2023-04-03T22:43:35;-0.80;99.90
38568;DHT22;24338;48.280;10.970;2023-04-03T22:49:42;-0.90;99.90
38568;DHT22;24338;48.280;10.970;2023-04-03T22:52:09;-0.90;99.90
38568;DHT22;24338;48.280;10.970;2023-04-03T22:54:36;-1.00;99.90
38568;DHT22;24338;48.280;10.970;2023-04-03T22:57:03;-1.00;99.90
38568;DHT22;24338;48.280;10.970;2023-04-03T22:59:30;-1.00;99.90
38568;DHT22;24338;48.280;10.970;2023-04-03T23:01:57;-1.00;99.90
38568;DHT22;24338;48.280;10.970;2023-04-03T23:04:24;-1.00;99.90
38568;DHT22;24338;48.280;10.970;2023-04-03T23:06:51;-1.00;99.90
38568;DHT22;24338;48.280;10.970;2023-04-03T23:09:18;-1.00;99.90
38568;DHT22;24338;48.280;10.970;2023-04-03T23:11:45;-1.00;99.90
38568;DHT22;24338;48.280;10.970;2023-04-03T23:14:12;-1.10;99.90
38568;DHT22;24338;48.280;10.970;2023-04-03T23:16:39;-1.10;99.90
38568;DHT22;24338;48.280;10.970;2023-04-03T23:19:07;-1.10;99.90
38568;DHT22;24338;48.280;10.970;2023-04-03T23:21:34;-1.10;99.90
38568;DHT22;24338;48.280;10.970;2023-04-03T23:24:01;-1.10;99.90
38568;DHT22;24338;48.280;10.970;2023-04-03T23:26:28;-1.20;99.90
38568;DHT22;24338;48.280;10.970;2023-04-03T23:28:55;-1.20;99.90
38568;DHT22;24338;48.280;10.970;2023-04-03T23:31:22;-1.30;99.90
38568;DHT22;24338;48.280;10.970;2023-04-03T23:33:51;-1.30;99.90
38568;DHT22;24338;48.280;10.970;2023-04-03T23:40:00;-1.30;99.90